Terminal Aerodrome Forecast
Issued by NWS

Home | Current Version | Previous Version | Text Only | Print | Product List | Glossary On
Versions: 1 2 3 4 5 6 7 8 9 10 11 12 13 14
000
FTAK31 PAFA 241127
TAFATA
TAF
PATA 241127Z 2412/2512 08006KT P6SM OVC027
     FM241500 09005KT 3SM -SN BR BKN015 OVC025
     FM241900 VRB03KT 2SM -SN BR SCT007 OVC015
     FM250200 VRB03KT P6SM -SHSN SCT015 BKN040
     FM250700 VRB03KT P6SM SCT040 BKN100=

USA.gov is the U.S. government's official web portal to all federal, state and local government web resources and services.